createdAt,value
2018-05-06T00:00:43.639Z,54.21
2018-05-06T00:01:43.645Z,53.82
2018-05-06T00:02:43.693Z,53.73
2018-05-06T00:03:43.664Z,53.53
2018-05-06T00:04:43.681Z,53.73
2018-05-06T00:05:43.697Z,52.87
2018-05-06T00:06:43.715Z,53.25
2018-05-06T00:07:43.740Z,53.06
2018-05-06T00:08:43.739Z,53.73
2018-05-06T00:09:43.782Z,53.16
2018-05-06T00:10:43.747Z,53.34
2018-05-06T00:11:43.751Z,54.21
2018-05-06T00:12:43.767Z,54.11
2018-05-06T00:13:43.774Z,53.73
2018-05-06T00:14:43.856Z,53.70
2018-05-06T00:15:43.792Z,53.25
2018-05-06T00:16:43.799Z,53.63
2018-05-06T00:17:43.810Z,53.80
2018-05-06T00:18:43.828Z,54.39
2018-05-06T00:19:43.833Z,53.53
2018-05-06T00:20:43.873Z,53.61
2018-05-06T00:21:43.865Z,54.37
2018-05-06T00:22:43.851Z,54.11
2018-05-06T00:23:43.859Z,54.18
2018-05-06T00:24:43.889Z,53.61
2018-05-06T00:25:43.918Z,53.70
2018-05-06T00:26:43.911Z,54.08
2018-05-06T00:27:43.912Z,53.63
2018-05-06T00:28:43.937Z,53.44
2018-05-06T00:29:43.918Z,53.25
2018-05-06T00:30:43.991Z,53.13
2018-05-06T00:31:44.057Z,54.08
2018-05-06T00:32:43.945Z,52.94
2018-05-06T00:33:43.961Z,53.99
2018-05-06T00:34:43.983Z,53.41
2018-05-06T00:35:44.020Z,53.89
2018-05-06T00:36:44.008Z,53.70
2018-05-06T00:37:44.097Z,53.70
2018-05-06T00:38:44.014Z,54.08
2018-05-06T00:39:44.060Z,53.99
2018-05-06T00:40:44.072Z,53.70
2018-05-06T00:41:44.070Z,54.27
2018-05-06T00:42:44.055Z,54.27
2018-05-06T00:43:44.061Z,53.89
2018-05-06T00:44:44.062Z,53.99
2018-05-06T00:45:44.086Z,54.18
2018-05-06T00:46:44.135Z,53.99
2018-05-06T00:47:44.144Z,53.89
2018-05-06T00:48:44.104Z,54.47
2018-05-06T00:49:44.177Z,54.08
2018-05-06T00:50:44.164Z,53.61
2018-05-06T00:51:44.129Z,54.27
2018-05-06T00:52:44.138Z,53.99
2018-05-06T00:53:44.205Z,53.89
2018-05-06T00:54:44.188Z,53.99
2018-05-06T00:55:44.168Z,53.61
2018-05-06T00:56:44.201Z,54.08
2018-05-06T00:57:44.218Z,54.18
2018-05-06T00:58:44.301Z,53.89
2018-05-06T00:59:44.231Z,53.89
2018-05-06T01:00:44.229Z,53.89
2018-05-06T01:01:44.258Z,53.70
2018-05-06T01:02:44.242Z,53.99
2018-05-06T01:03:44.280Z,54.37
2018-05-06T01:04:44.275Z,54.08
2018-05-06T01:05:44.262Z,54.37
2018-05-06T01:06:44.295Z,53.99
2018-05-06T01:07:44.304Z,53.99
2018-05-06T01:08:44.351Z,54.47
2018-05-06T01:09:44.337Z,53.89
2018-05-06T01:10:44.351Z,54.08
2018-05-06T01:11:44.362Z,54.18
2018-05-06T01:12:44.389Z,54.37
2018-05-06T01:13:44.387Z,54.08
2018-05-06T01:14:44.372Z,54.27
2018-05-06T01:15:44.362Z,53.89
2018-05-06T01:16:44.385Z,54.27
2018-05-06T01:17:44.396Z,54.56
2018-05-06T01:18:44.452Z,54.47
2018-05-06T01:19:44.426Z,54.18
2018-05-06T01:20:44.430Z,53.99
2018-05-06T01:21:44.446Z,53.99
2018-05-06T01:22:44.437Z,54.37
2018-05-06T01:23:44.459Z,53.80
2018-05-06T01:24:44.501Z,53.89
2018-05-06T01:25:44.465Z,54.18
2018-05-06T01:26:44.478Z,54.18
2018-05-06T01:27:44.474Z,54.18
2018-05-06T01:28:44.499Z,54.56
2018-05-06T01:29:44.504Z,54.56
2018-05-06T01:30:44.543Z,54.56
2018-05-06T01:31:44.509Z,54.34
2018-05-06T01:32:44.715Z,54.66
2018-05-06T01:33:44.541Z,54.56
2018-05-06T01:34:44.573Z,54.47
2018-05-06T01:35:44.589Z,54.72
2018-05-06T01:36:44.593Z,55.11
2018-05-06T01:37:44.596Z,54.82
2018-05-06T01:38:44.714Z,55.01
2018-05-06T01:39:44.617Z,55.40
2018-05-06T01:40:44.620Z,54.72
2018-05-06T01:41:44.624Z,55.20
2018-05-06T01:42:44.628Z,54.72
2018-05-06T01:43:44.686Z,54.37
2018-05-06T01:44:44.748Z,54.37
2018-05-06T01:45:44.638Z,54.63
2018-05-06T01:46:44.666Z,54.63
2018-05-06T01:47:44.685Z,54.37
2018-05-06T01:48:44.685Z,54.34
2018-05-06T01:49:44.710Z,54.34
2018-05-06T01:50:44.738Z,54.91
2018-05-06T01:51:44.697Z,55.20
2018-05-06T01:52:44.709Z,54.91
2018-05-06T01:53:44.717Z,55.01
2018-05-06T01:54:44.739Z,54.72
2018-05-06T01:55:44.797Z,55.40
2018-05-06T01:56:44.751Z,55.49
2018-05-06T01:57:44.752Z,55.58
2018-05-06T01:58:44.783Z,55.40
2018-05-06T01:59:44.805Z,55.20
2018-05-06T02:00:44.857Z,55.87
2018-05-06T02:01:44.826Z,56.06
2018-05-06T02:02:44.808Z,55.30
2018-05-06T02:03:44.843Z,55.40
2018-05-06T02:04:44.835Z,55.20
2018-05-06T02:05:44.838Z,55.40
2018-05-06T02:06:44.881Z,55.58
2018-05-06T02:07:44.892Z,55.68
2018-05-06T02:08:44.854Z,55.87
2018-05-06T02:09:44.876Z,55.96
2018-05-06T02:10:44.885Z,55.77
2018-05-06T02:11:44.895Z,55.58
2018-05-06T02:12:44.948Z,55.40
2018-05-06T02:13:44.936Z,55.58
2018-05-06T02:14:44.923Z,55.77
2018-05-06T02:15:44.948Z,55.96
2018-05-06T02:16:44.962Z,55.58
2018-05-06T02:17:44.957Z,55.96
2018-05-06T02:18:44.987Z,56.06
2018-05-06T02:19:44.961Z,56.25
2018-05-06T02:20:44.978Z,56.54
2018-05-06T02:21:44.989Z,55.96
2018-05-06T02:22:44.990Z,56.63
2018-05-06T02:23:45.068Z,56.06
2018-05-06T02:24:45.031Z,56.54
2018-05-06T02:25:45.028Z,56.25
2018-05-06T02:26:45.022Z,56.63
2018-05-06T02:27:45.075Z,56.35
2018-05-06T02:28:45.082Z,56.70
2018-05-06T02:29:45.079Z,56.35
2018-05-06T02:30:45.067Z,56.63
2018-05-06T02:31:45.087Z,56.35
2018-05-06T02:32:45.125Z,56.35
2018-05-06T02:33:45.097Z,56.35
2018-05-06T02:34:45.099Z,56.25
2018-05-06T02:35:45.135Z,56.63
2018-05-06T02:36:45.120Z,56.35
2018-05-06T02:37:45.167Z,56.45
2018-05-06T02:38:45.129Z,56.54
2018-05-06T02:39:45.144Z,56.63
2018-05-06T02:40:45.170Z,56.54
2018-05-06T02:41:45.161Z,56.16
2018-05-06T02:42:45.276Z,56.16
2018-05-06T02:43:45.192Z,56.73
2018-05-06T02:44:45.195Z,56.45
2018-05-06T02:45:45.205Z,56.35
2018-05-06T02:46:45.225Z,56.06
2018-05-06T02:47:45.240Z,55.49
2018-05-06T02:48:45.236Z,56.35
2018-05-06T02:49:45.245Z,56.16
2018-05-06T02:50:45.252Z,56.45
2018-05-06T02:51:45.297Z,55.58
2018-05-06T02:52:45.274Z,56.06
2018-05-06T02:53:45.282Z,56.25
2018-05-06T02:54:45.278Z,56.45
2018-05-06T02:55:45.288Z,56.54
2018-05-06T02:56:45.358Z,55.96
2018-05-06T02:57:45.328Z,55.58
2018-05-06T02:58:45.315Z,55.77
2018-05-06T02:59:45.333Z,56.54
2018-05-06T03:00:45.333Z,56.16
2018-05-06T03:01:45.373Z,56.54
2018-05-06T03:02:45.389Z,56.54
2018-05-06T03:03:45.370Z,56.54
2018-05-06T03:04:45.407Z,56.63
2018-05-06T03:05:45.382Z,56.54
2018-05-06T03:06:45.405Z,56.35
2018-05-06T03:07:45.426Z,56.82
2018-05-06T03:08:45.416Z,57.37
2018-05-06T03:09:45.433Z,56.99
2018-05-06T03:10:45.435Z,56.54
2018-05-06T03:11:45.487Z,56.73
2018-05-06T03:12:45.448Z,57.18
2018-05-06T03:13:45.463Z,56.80
2018-05-06T03:14:45.467Z,56.89
2018-05-06T03:15:45.499Z,57.28
2018-05-06T03:16:45.512Z,56.99
2018-05-06T03:17:45.515Z,56.60
2018-05-06T03:18:45.555Z,56.99
2018-05-06T03:19:45.506Z,57.18
2018-05-06T03:20:45.523Z,57.09
2018-05-06T03:21:45.547Z,56.80
2018-05-06T03:22:45.546Z,56.80
2018-05-06T03:23:45.554Z,56.89
2018-05-06T03:24:45.577Z,56.89
2018-05-06T03:25:45.576Z,57.09
2018-05-06T03:26:45.624Z,56.99
2018-05-06T03:27:45.603Z,57.28
2018-05-06T03:28:45.662Z,56.89
2018-05-06T03:29:45.605Z,56.70
2018-05-06T03:30:45.621Z,57.37
2018-05-06T03:31:45.636Z,57.56
2018-05-06T03:32:45.743Z,57.56
2018-05-06T03:33:45.646Z,57.65
2018-05-06T03:34:45.688Z,57.46
2018-05-06T03:35:45.665Z,57.56
2018-05-06T03:36:45.669Z,57.46
2018-05-06T03:37:45.680Z,57.31
2018-05-06T03:38:45.689Z,57.18
2018-05-06T03:39:45.721Z,57.28
2018-05-06T03:40:45.742Z,56.73
2018-05-06T03:41:45.715Z,56.82
2018-05-06T03:42:45.712Z,56.92
2018-05-06T03:43:45.727Z,56.92
2018-05-06T03:44:45.749Z,57.21
2018-05-06T03:45:45.776Z,57.11
2018-05-06T03:46:45.788Z,57.59
2018-05-06T03:47:45.773Z,56.92
2018-05-06T03:48:45.803Z,57.02
2018-05-06T03:49:45.800Z,57.11
2018-05-06T03:50:45.829Z,57.40
2018-05-06T03:51:45.815Z,57.50
2018-05-06T03:52:45.802Z,57.50
2018-05-06T03:53:45.822Z,56.82
2018-05-06T03:54:45.827Z,56.82
2018-05-06T03:55:45.858Z,57.11
2018-05-06T03:56:45.891Z,57.02
2018-05-06T03:57:45.863Z,57.21
2018-05-06T03:58:45.871Z,56.82
2018-05-06T03:59:45.877Z,57.11
2018-05-06T04:00:45.927Z,56.73
2018-05-06T04:01:45.886Z,56.54
2018-05-06T04:02:45.905Z,56.73
2018-05-06T04:03:45.921Z,56.25
2018-05-06T04:04:45.920Z,56.35
2018-05-06T04:05:46.016Z,56.54
2018-05-06T04:06:45.928Z,56.35
2018-05-06T04:07:45.966Z,56.85
2018-05-06T04:08:45.988Z,56.57
2018-05-06T04:09:45.988Z,56.57
2018-05-06T04:10:45.996Z,56.28
2018-05-06T04:11:46.092Z,56.18
2018-05-06T04:12:46.004Z,55.99
2018-05-06T04:13:46.014Z,56.67
2018-05-06T04:14:46.022Z,55.71
2018-05-06T04:15:46.019Z,56.67
2018-05-06T04:16:46.034Z,56.67
2018-05-06T04:17:46.077Z,55.71
2018-05-06T04:18:46.051Z,55.90
2018-05-06T04:19:46.091Z,56.18
2018-05-06T04:20:46.073Z,55.90
2018-05-06T04:21:46.084Z,55.99
2018-05-06T04:22:46.144Z,55.99
2018-05-06T04:23:46.118Z,55.61
2018-05-06T04:24:46.108Z,55.42
2018-05-06T04:25:46.131Z,55.45
2018-05-06T04:26:46.180Z,55.83
2018-05-06T04:27:46.191Z,55.54
2018-05-06T04:28:46.156Z,55.54
2018-05-06T04:29:46.158Z,55.16
2018-05-06T04:30:46.181Z,54.97
2018-05-06T04:31:46.175Z,55.16
2018-05-06T04:32:46.253Z,54.78
2018-05-06T04:33:46.226Z,54.97
2018-05-06T04:34:46.213Z,54.49
2018-05-06T04:35:46.222Z,54.61
2018-05-06T04:36:46.226Z,54.33
2018-05-06T04:37:46.245Z,54.33
2018-05-06T04:38:46.290Z,53.94
2018-05-06T04:39:46.252Z,53.37
2018-05-06T04:40:46.284Z,53.20
2018-05-06T04:41:46.274Z,53.30
2018-05-06T04:42:46.291Z,52.54
2018-05-06T04:43:46.325Z,52.54
2018-05-06T04:44:46.313Z,52.15
2018-05-06T04:45:46.371Z,51.22
2018-05-06T04:46:46.324Z,51.32
2018-05-06T04:47:46.347Z,50.20
2018-05-06T04:48:46.359Z,50.20
2018-05-06T04:49:46.366Z,49.24
2018-05-06T04:50:46.409Z,49.16
2018-05-06T04:51:46.430Z,48.52
2018-05-06T04:52:46.399Z,47.37
2018-05-06T04:53:46.430Z,46.72
2018-05-06T04:54:46.411Z,46.24
2018-05-06T04:55:46.442Z,45.68
2018-05-06T04:56:46.470Z,44.92
2018-05-06T04:57:46.449Z,44.82
2018-05-06T04:58:46.472Z,44.63
2018-05-06T04:59:46.477Z,44.54
2018-05-06T05:00:46.483Z,43.96
2018-05-06T05:01:46.541Z,43.31
2018-05-06T05:02:46.513Z,43.60
2018-05-06T05:03:46.513Z,43.23
2018-05-06T05:04:46.526Z,42.37
2018-05-06T05:05:46.534Z,41.91
2018-05-06T05:06:46.686Z,42.00
2018-05-06T05:07:46.574Z,41.26
2018-05-06T05:08:46.584Z,40.89
2018-05-06T05:09:46.589Z,40.63
2018-05-06T05:10:46.606Z,39.29
2018-05-06T05:11:46.612Z,38.74
2018-05-06T05:12:46.663Z,38.37
2018-05-06T05:13:46.690Z,36.75
2018-05-06T05:14:46.656Z,36.09
2018-05-06T05:15:46.660Z,35.34
2018-05-06T05:16:46.696Z,34.78
2018-05-06T05:17:46.698Z,33.81
2018-05-06T05:18:46.731Z,34.10
2018-05-06T05:19:46.760Z,33.52
2018-05-06T05:20:46.758Z,33.62
2018-05-06T05:21:46.747Z,33.05
2018-05-06T05:22:46.749Z,31.71
2018-05-06T05:23:46.777Z,31.23
2018-05-06T05:24:46.840Z,30.49
2018-05-06T05:25:46.804Z,30.31
2018-05-06T05:26:46.819Z,29.44
2018-05-06T05:27:46.826Z,29.06
2018-05-06T05:28:46.853Z,28.49
2018-05-06T05:29:46.909Z,28.20
2018-05-06T05:30:46.864Z,27.82
2018-05-06T05:31:46.883Z,27.36
2018-05-06T05:32:46.939Z,26.79
2018-05-06T05:33:46.924Z,25.82
2018-05-06T05:34:46.969Z,25.54
2018-05-06T05:35:46.939Z,25.34
2018-05-06T05:36:46.983Z,25.04
2018-05-06T05:37:46.967Z,25.54
2018-05-06T05:38:46.991Z,24.78
2018-05-06T05:39:47.003Z,24.68
2018-05-06T05:40:47.032Z,24.97
2018-05-06T05:41:47.080Z,25.05
2018-05-06T05:42:47.040Z,25.15
2018-05-06T05:43:47.099Z,25.53
2018-05-06T05:44:47.087Z,24.95
2018-05-06T05:45:47.088Z,25.99
2018-05-06T05:46:47.162Z,26.17
2018-05-06T05:47:47.154Z,26.84
2018-05-06T05:48:47.132Z,27.60
2018-05-06T05:49:47.149Z,27.98
2018-05-06T05:50:47.180Z,27.96
2018-05-06T05:51:47.245Z,29.02
2018-05-06T05:52:47.253Z,29.38
2018-05-06T05:53:47.227Z,30.25
2018-05-06T05:54:47.232Z,30.62
2018-05-06T05:55:47.253Z,31.20
2018-05-06T05:56:47.256Z,31.57
2018-05-06T05:57:47.313Z,31.76
2018-05-06T05:58:47.303Z,32.14
2018-05-06T05:59:47.311Z,32.70
2018-05-06T06:00:47.316Z,33.37
2018-05-06T06:01:47.327Z,33.74
2018-05-06T06:02:47.385Z,34.42
2018-05-06T06:03:47.370Z,34.88
2018-05-06T06:04:47.420Z,34.59
2018-05-06T06:05:47.395Z,34.78
2018-05-06T06:06:47.397Z,34.78
2018-05-06T06:07:47.424Z,35.36
2018-05-06T06:08:47.432Z,35.25
2018-05-06T06:09:47.475Z,35.42
2018-05-06T06:10:47.461Z,36.49
2018-05-06T06:11:47.486Z,36.97
2018-05-06T06:12:47.488Z,37.14
2018-05-06T06:13:47.521Z,37.72
2018-05-06T06:14:47.561Z,38.20
2018-05-06T06:15:47.526Z,38.39
2018-05-06T06:16:47.527Z,38.95
2018-05-06T06:17:47.591Z,38.66
2018-05-06T06:18:47.567Z,38.85
2018-05-06T06:19:47.609Z,38.85
2018-05-06T06:20:47.655Z,38.66
2018-05-06T06:21:47.596Z,39.33
2018-05-06T06:22:47.619Z,39.24
2018-05-06T06:23:47.631Z,39.24
2018-05-06T06:24:47.692Z,39.79
2018-05-06T06:25:47.647Z,40.08
2018-05-06T06:26:47.667Z,40.08
2018-05-06T06:27:47.713Z,40.28
2018-05-06T06:28:47.699Z,40.37
2018-05-06T06:29:47.698Z,40.45
2018-05-06T06:30:47.745Z,40.35
2018-05-06T06:31:47.723Z,40.64
2018-05-06T06:32:47.733Z,40.64
2018-05-06T06:33:47.790Z,40.73
2018-05-06T06:34:47.753Z,40.93
2018-05-06T06:35:47.785Z,41.12
2018-05-06T06:36:47.786Z,40.73
2018-05-06T06:37:47.808Z,40.64
2018-05-06T06:38:47.854Z,40.83
2018-05-06T06:39:47.827Z,40.45
2018-05-06T06:40:47.833Z,41.31
2018-05-06T06:41:47.847Z,41.41
2018-05-06T06:42:47.889Z,41.41
2018-05-06T06:43:47.893Z,41.79
2018-05-06T06:44:47.922Z,41.49
2018-05-06T06:45:47.901Z,41.77
2018-05-06T06:46:47.914Z,41.87
2018-05-06T06:47:47.911Z,41.96
2018-05-06T06:48:47.971Z,42.16
2018-05-06T06:49:47.994Z,42.16
2018-05-06T06:50:47.953Z,42.16
2018-05-06T06:51:47.970Z,41.77
2018-05-06T06:52:47.988Z,42.16
2018-05-06T06:53:48.015Z,42.25
2018-05-06T06:54:48.058Z,42.43
2018-05-06T06:55:48.099Z,42.33
2018-05-06T06:56:48.047Z,42.52
2018-05-06T06:57:48.064Z,43.29
2018-05-06T06:58:48.050Z,43.10
2018-05-06T06:59:48.093Z,43.10
2018-05-06T07:00:48.132Z,43.07
2018-05-06T07:01:48.088Z,43.55
2018-05-06T07:02:48.207Z,43.65
2018-05-06T07:03:48.104Z,43.74
2018-05-06T07:04:48.129Z,44.13
2018-05-06T07:05:48.216Z,44.51
2018-05-06T07:06:48.150Z,44.90
2018-05-06T07:07:48.166Z,44.90
2018-05-06T07:08:48.177Z,44.70
2018-05-06T07:09:48.181Z,45.00
2018-05-06T07:10:48.233Z,44.90
2018-05-06T07:11:48.210Z,45.09
2018-05-06T07:12:48.218Z,44.42
2018-05-06T07:13:48.249Z,44.13
2018-05-06T07:14:48.252Z,43.94
2018-05-06T07:15:48.319Z,43.94
2018-05-06T07:16:48.261Z,44.03
2018-05-06T07:17:48.292Z,44.32
2018-05-06T07:18:48.287Z,44.70
2018-05-06T07:19:48.305Z,45.09
2018-05-06T07:20:48.339Z,44.80
2018-05-06T07:21:48.364Z,44.80
2018-05-06T07:22:48.327Z,45.07
2018-05-06T07:23:48.386Z,44.70
2018-05-06T07:24:48.353Z,44.30
2018-05-06T07:25:48.379Z,44.78
2018-05-06T07:26:48.449Z,44.61
2018-05-06T07:27:48.410Z,45.09
2018-05-06T07:28:48.404Z,45.36
2018-05-06T07:29:48.480Z,44.97
2018-05-06T07:30:48.458Z,44.68
2018-05-06T07:31:48.440Z,44.01
2018-05-06T07:32:48.491Z,44.32
2018-05-06T07:33:48.462Z,44.40
2018-05-06T07:34:48.472Z,44.51
2018-05-06T07:35:48.582Z,44.78
2018-05-06T07:36:48.549Z,44.90
2018-05-06T07:37:48.515Z,45.18
2018-05-06T07:38:48.524Z,44.90
2018-05-06T07:39:48.549Z,43.73
2018-05-06T07:40:48.550Z,43.74
2018-05-06T07:41:48.593Z,44.13
2018-05-06T07:42:48.571Z,44.01
2018-05-06T07:43:48.579Z,44.11
2018-05-06T07:44:48.647Z,44.03
2018-05-06T07:45:48.592Z,43.84
2018-05-06T07:46:48.643Z,43.46
2018-05-06T07:47:48.734Z,42.98
2018-05-06T07:48:48.771Z,43.27
2018-05-06T07:49:48.656Z,43.46
2018-05-06T07:50:48.666Z,42.98
2018-05-06T07:51:48.786Z,43.17
2018-05-06T07:52:48.760Z,43.17
2018-05-06T07:53:48.686Z,43.17
2018-05-06T07:54:48.826Z,43.27
2018-05-06T07:55:48.729Z,43.36
2018-05-06T07:56:48.722Z,43.07
2018-05-06T07:57:48.741Z,42.98
2018-05-06T07:58:48.812Z,42.79
2018-05-06T07:59:48.793Z,43.17
2018-05-06T08:00:48.797Z,43.27
2018-05-06T08:01:48.833Z,43.27
2018-05-06T08:02:48.808Z,43.65
2018-05-06T08:03:48.820Z,43.94
2018-05-06T08:04:48.813Z,44.23
2018-05-06T08:05:48.855Z,44.51
2018-05-06T08:06:48.914Z,44.03
2018-05-06T08:07:48.953Z,43.84
2018-05-06T08:08:48.941Z,43.17
2018-05-06T08:09:48.871Z,43.46
2018-05-06T08:10:49.009Z,43.27
2018-05-06T08:11:48.995Z,42.88
2018-05-06T08:12:48.919Z,42.60
2018-05-06T08:13:48.924Z,43.27
2018-05-06T08:14:48.947Z,43.27
2018-05-06T08:15:48.980Z,43.27
2018-05-06T08:16:49.019Z,43.07
2018-05-06T08:17:48.974Z,42.88
2018-05-06T08:18:48.979Z,42.30
2018-05-06T08:19:49.047Z,42.50
2018-05-06T08:20:49.067Z,42.30
2018-05-06T08:21:49.081Z,42.40
2018-05-06T08:22:49.134Z,42.21
2018-05-06T08:23:49.129Z,42.30
2018-05-06T08:24:49.102Z,42.40
2018-05-06T08:25:49.086Z,42.13
2018-05-06T08:26:49.079Z,41.75
2018-05-06T08:27:49.120Z,41.56
2018-05-06T08:28:49.114Z,41.94
2018-05-06T08:29:49.163Z,41.56
2018-05-06T08:30:49.156Z,41.66
2018-05-06T08:31:49.180Z,41.56
2018-05-06T08:32:49.157Z,40.89
2018-05-06T08:33:49.170Z,40.79
2018-05-06T08:34:49.171Z,40.79
2018-05-06T08:35:49.214Z,40.99
2018-05-06T08:36:49.265Z,41.17
2018-05-06T08:37:49.199Z,41.37
2018-05-06T08:38:49.228Z,41.56
2018-05-06T08:39:49.228Z,41.85
2018-05-06T08:40:49.273Z,42.04
2018-05-06T08:41:49.346Z,41.17
2018-05-06T08:42:49.271Z,41.37
2018-05-06T08:43:49.272Z,41.75
2018-05-06T08:44:49.295Z,41.46
2018-05-06T08:45:49.336Z,41.37
2018-05-06T08:46:49.320Z,40.70
2018-05-06T08:47:49.371Z,40.89
2018-05-06T08:48:49.352Z,40.60
2018-05-06T08:49:49.353Z,40.60
2018-05-06T08:50:49.358Z,40.50
2018-05-06T08:51:49.365Z,40.05
2018-05-06T08:52:49.415Z,40.22
2018-05-06T08:53:49.490Z,40.60
2018-05-06T08:54:49.461Z,40.89
2018-05-06T08:55:49.477Z,40.60
2018-05-06T08:56:49.431Z,39.83
2018-05-06T08:57:49.471Z,40.62
2018-05-06T08:58:49.478Z,40.43
2018-05-06T08:59:49.517Z,40.33
2018-05-06T09:00:49.542Z,40.62
2018-05-06T09:01:49.509Z,40.23
2018-05-06T09:02:49.552Z,40.62
2018-05-06T09:03:49.515Z,40.81
2018-05-06T09:04:49.612Z,41.10
2018-05-06T09:05:49.579Z,40.81
2018-05-06T09:06:49.579Z,41.29
2018-05-06T09:07:49.639Z,41.20
2018-05-06T09:08:49.608Z,41.29
2018-05-06T09:09:49.689Z,41.00
2018-05-06T09:10:49.651Z,41.10
2018-05-06T09:11:49.623Z,41.20
2018-05-06T09:12:49.639Z,41.67
2018-05-06T09:13:49.632Z,41.77
2018-05-06T09:14:49.788Z,40.43
2018-05-06T09:15:49.688Z,41.10
2018-05-06T09:16:49.695Z,41.10
2018-05-06T09:17:49.693Z,41.00
2018-05-06T09:18:49.726Z,40.62
2018-05-06T09:19:49.790Z,40.33
2018-05-06T09:20:49.800Z,39.95
2018-05-06T09:21:49.730Z,39.56
2018-05-06T09:22:49.739Z,39.76
2018-05-06T09:23:49.760Z,40.43
2018-05-06T09:24:49.834Z,40.14
2018-05-06T09:25:49.800Z,40.05
2018-05-06T09:26:49.815Z,40.05
2018-05-06T09:27:49.857Z,40.14
2018-05-06T09:28:49.854Z,40.23
2018-05-06T09:29:49.838Z,40.33
2018-05-06T09:30:49.856Z,40.23
2018-05-06T09:31:49.860Z,40.05
2018-05-06T09:32:49.907Z,39.85
2018-05-06T09:33:49.880Z,40.43
2018-05-06T09:34:49.953Z,40.33
2018-05-06T09:35:49.918Z,39.85
2018-05-06T09:36:50.052Z,40.05
2018-05-06T09:37:50.030Z,40.23
2018-05-06T09:38:49.957Z,40.72
2018-05-06T09:39:49.964Z,40.52
2018-05-06T09:40:49.968Z,40.52
2018-05-06T09:41:49.971Z,40.72
2018-05-06T09:42:50.018Z,40.52
2018-05-06T09:43:50.035Z,40.43
2018-05-06T09:44:50.016Z,40.33
2018-05-06T09:45:50.038Z,40.52
2018-05-06T09:46:50.060Z,39.66
2018-05-06T09:47:50.073Z,40.23
2018-05-06T09:48:50.141Z,40.43
2018-05-06T09:49:50.091Z,40.05
2018-05-06T09:50:50.091Z,40.23
2018-05-06T09:51:50.086Z,40.52
2018-05-06T09:52:50.107Z,40.23
2018-05-06T09:53:50.181Z,40.23
2018-05-06T09:54:50.167Z,40.52
2018-05-06T09:55:50.146Z,40.62
2018-05-06T09:56:50.151Z,39.56
2018-05-06T09:57:50.160Z,39.66
2018-05-06T09:58:50.198Z,39.85
2018-05-06T09:59:50.235Z,39.56
2018-05-06T10:00:50.220Z,39.66
2018-05-06T10:01:50.217Z,39.66
2018-05-06T10:02:50.233Z,40.23
2018-05-06T10:03:50.231Z,40.23
2018-05-06T10:04:50.282Z,40.62
2018-05-06T10:05:50.276Z,40.33
2018-05-06T10:06:50.271Z,40.52
2018-05-06T10:07:50.307Z,40.25
2018-05-06T10:08:50.304Z,40.06
2018-05-06T10:09:50.326Z,40.06
2018-05-06T10:10:50.409Z,40.45
2018-05-06T10:11:50.401Z,40.55
2018-05-06T10:12:50.351Z,40.45
2018-05-06T10:13:50.375Z,40.06
2018-05-06T10:14:50.371Z,40.35
2018-05-06T10:15:50.420Z,39.97
2018-05-06T10:16:50.437Z,39.78
2018-05-06T10:17:50.422Z,39.78
2018-05-06T10:18:50.419Z,39.78
2018-05-06T10:19:50.438Z,39.78
2018-05-06T10:20:50.440Z,39.29
2018-05-06T10:21:50.507Z,39.39
2018-05-06T10:22:50.492Z,39.68
2018-05-06T10:23:50.487Z,39.20
2018-05-06T10:24:50.510Z,39.78
2018-05-06T10:25:50.513Z,39.68
2018-05-06T10:26:50.619Z,39.97
2018-05-06T10:27:50.536Z,40.16
2018-05-06T10:28:50.542Z,40.35
2018-05-06T10:29:50.561Z,40.06
2018-05-06T10:30:50.583Z,39.97
2018-05-06T10:31:50.624Z,39.87
2018-05-06T10:32:50.616Z,40.25
2018-05-06T10:33:50.608Z,40.55
2018-05-06T10:34:50.639Z,39.58
2018-05-06T10:35:50.648Z,39.58
2018-05-06T10:36:50.662Z,40.06
2018-05-06T10:37:50.711Z,40.06
2018-05-06T10:38:50.687Z,39.68
2018-05-06T10:39:50.700Z,39.89
2018-05-06T10:40:50.685Z,39.61
2018-05-06T10:41:50.709Z,39.99
2018-05-06T10:42:50.745Z,40.18
2018-05-06T10:43:50.759Z,39.51
2018-05-06T10:44:50.744Z,39.89
2018-05-06T10:45:50.765Z,39.89
2018-05-06T10:46:50.776Z,39.61
2018-05-06T10:47:50.818Z,39.99
2018-05-06T10:48:50.860Z,40.28
2018-05-06T10:49:50.813Z,39.99
2018-05-06T10:50:50.809Z,39.79
2018-05-06T10:51:50.828Z,39.99
2018-05-06T10:52:50.843Z,40.18
2018-05-06T10:53:50.903Z,40.56
2018-05-06T10:54:50.875Z,40.28
2018-05-06T10:55:50.910Z,40.37
2018-05-06T10:56:50.901Z,40.08
2018-05-06T10:57:50.982Z,40.28
2018-05-06T10:58:50.965Z,40.01
2018-05-06T10:59:50.921Z,39.61
2018-05-06T11:00:50.956Z,39.33
2018-05-06T11:01:50.960Z,39.62
2018-05-06T11:02:50.972Z,39.22
2018-05-06T11:03:51.034Z,39.89
2018-05-06T11:04:50.984Z,40.18
2018-05-06T11:05:51.024Z,39.61
2018-05-06T11:06:51.033Z,39.61
2018-05-06T11:07:51.035Z,40.18
2018-05-06T11:08:51.089Z,39.99
2018-05-06T11:09:51.089Z,39.99
2018-05-06T11:10:51.093Z,40.58
2018-05-06T11:11:51.076Z,40.37
2018-05-06T11:12:51.097Z,40.11
2018-05-06T11:13:51.134Z,40.01
2018-05-06T11:14:51.136Z,40.01
2018-05-06T11:15:51.138Z,40.39
2018-05-06T11:16:51.143Z,40.49
2018-05-06T11:17:51.159Z,40.11
2018-05-06T11:18:51.192Z,40.01
2018-05-06T11:19:51.190Z,40.49
2018-05-06T11:20:51.198Z,40.30
2018-05-06T11:21:51.224Z,40.68
2018-05-06T11:22:51.247Z,40.58
2018-05-06T11:23:51.267Z,40.39
2018-05-06T11:24:51.243Z,40.49
2018-05-06T11:25:51.281Z,40.30
2018-05-06T11:26:51.263Z,40.20
2018-05-06T11:27:51.283Z,40.39
2018-05-06T11:28:51.329Z,40.49
2018-05-06T11:29:51.302Z,40.11
2018-05-06T11:30:51.316Z,40.11
2018-05-06T11:31:51.347Z,40.68
2018-05-06T11:32:51.365Z,40.39
2018-05-06T11:33:51.541Z,40.39
2018-05-06T11:34:51.377Z,40.30
2018-05-06T11:35:51.395Z,40.39
2018-05-06T11:36:51.434Z,40.58
2018-05-06T11:37:51.412Z,40.11
2018-05-06T11:38:51.508Z,40.01
2018-05-06T11:39:51.429Z,40.30
2018-05-06T11:40:51.529Z,40.30
2018-05-06T11:41:51.459Z,40.49
2018-05-06T11:42:51.494Z,40.58
2018-05-06T11:43:51.514Z,40.49
2018-05-06T11:44:51.489Z,39.91
2018-05-06T11:45:51.508Z,40.11
2018-05-06T11:46:51.541Z,40.11
2018-05-06T11:47:51.586Z,40.22
2018-05-06T11:48:51.561Z,40.58
2018-05-06T11:49:51.568Z,40.30
2018-05-06T11:50:51.576Z,40.30
2018-05-06T11:51:51.591Z,40.20
2018-05-06T11:52:51.630Z,40.30
2018-05-06T11:53:51.620Z,40.20
2018-05-06T11:54:51.629Z,40.88
2018-05-06T11:55:51.632Z,40.39
2018-05-06T11:56:51.659Z,40.58
2018-05-06T11:57:51.717Z,40.68
2018-05-06T11:58:51.725Z,40.78
2018-05-06T11:59:51.687Z,40.78
2018-05-06T12:00:51.729Z,41.06
2018-05-06T12:01:51.718Z,40.88
2018-05-06T12:02:51.804Z,40.68
2018-05-06T12:03:51.755Z,40.49
2018-05-06T12:04:51.798Z,40.68
2018-05-06T12:05:51.808Z,40.30
2018-05-06T12:06:51.781Z,40.01
2018-05-06T12:07:51.845Z,40.11
2018-05-06T12:08:51.796Z,40.78
2018-05-06T12:09:51.846Z,40.99
2018-05-06T12:10:51.861Z,41.47
2018-05-06T12:11:51.858Z,41.08
2018-05-06T12:12:51.919Z,40.80
2018-05-06T12:13:51.897Z,41.08
2018-05-06T12:14:51.893Z,41.28
2018-05-06T12:15:51.903Z,41.28
2018-05-06T12:16:51.910Z,40.89
2018-05-06T12:17:51.952Z,40.99
2018-05-06T12:18:52.000Z,40.70
2018-05-06T12:19:51.964Z,40.31
2018-05-06T12:20:51.971Z,40.80
2018-05-06T12:21:51.989Z,40.99
2018-05-06T12:22:51.979Z,40.61
2018-05-06T12:23:52.160Z,40.89
2018-05-06T12:24:52.087Z,40.80
2018-05-06T12:25:52.031Z,40.80
2018-05-06T12:26:52.029Z,40.99
2018-05-06T12:27:52.057Z,41.38
2018-05-06T12:28:52.075Z,40.89
2018-05-06T12:29:52.135Z,41.08
2018-05-06T12:30:52.095Z,40.31
2018-05-06T12:31:52.104Z,40.31
2018-05-06T12:32:52.111Z,40.22
2018-05-06T12:33:52.123Z,40.12
2018-05-06T12:34:52.213Z,40.41
2018-05-06T12:35:52.169Z,40.22
2018-05-06T12:36:52.177Z,39.93
2018-05-06T12:37:52.208Z,39.93
2018-05-06T12:38:52.204Z,39.74
2018-05-06T12:39:52.268Z,39.36
2018-05-06T12:40:52.278Z,38.87
2018-05-06T12:41:52.238Z,39.06
2018-05-06T12:42:52.276Z,39.06
2018-05-06T12:43:52.299Z,39.16
2018-05-06T12:44:52.325Z,38.87
2018-05-06T12:45:52.300Z,39.45
2018-05-06T12:46:52.319Z,39.45
2018-05-06T12:47:52.311Z,38.97
2018-05-06T12:48:52.338Z,39.06
2018-05-06T12:49:52.377Z,39.16
2018-05-06T12:50:52.378Z,39.36
2018-05-06T12:51:52.364Z,39.64
2018-05-06T12:52:52.399Z,39.47